Time;durP1;ratioP1;P1;durP2;ratioP2;P2;SDS_P1;SDS_P2;PMS_P1;PMS_P2;Temp;Humidity;BMP_temperature;BMP_pressure;BME280_temperature;BME280_humidity;BME280_pressure;Samples;Min_cycle;Max_cycle;Signal;HPM_P1;HPM_P2
2022/10/12 00:02:06;;;;;;;;;;;;;;;21.54;47.64;102190.72;7285765;19;153476;-58
2022/10/12 00:04:33;;;;;;;;;;;;;;;21.54;47.85;102184.22;7283479;19;155059;-58
2022/10/12 00:06:59;;;;;;;;;;;;;;;21.52;47.73;102183.69;7280039;19;152899;-58
2022/10/12 00:09:26;;;;;;;;;;;;;;;21.53;47.98;102174.13;7286442;19;153580;-58
2022/10/12 00:11:53;;;;;;;;;;;;;;;21.51;48.08;102179.19;7283571;19;154497;-58
2022/10/12 00:14:20;;;;;;;;;;;;;;;21.49;47.75;102178.63;7293310;19;152439;-59
2022/10/12 00:16:46;;;;;;;;;;;;;;;21.48;47.89;102171.34;7283780;19;154392;-58
2022/10/12 00:19:13;;;;;;;;;;;;;;;21.46;48.06;102182.00;7285723;19;153207;-58
2022/10/12 00:21:40;;;;;;;;;;;;;;;21.45;48.45;102174.69;7284413;19;154526;-58
2022/10/12 00:24:08;;;;;;;;;;;;;;;21.45;48.24;102180.31;7284789;19;154242;-58
2022/10/12 00:26:34;;;;;;;;;;;;;;;21.46;48.22;102176.38;7285106;19;152439;-58
2022/10/12 00:29:01;;;;;;;;;;;;;;;21.45;48.04;102167.09;7285313;19;154346;-58
2022/10/12 00:31:29;;;;;;;;;;;;;;;21.44;48.49;102179.47;7282337;19;153455;-58
2022/10/12 00:33:58;;;;;;;;;;;;;;;21.46;48.16;102176.38;7284982;19;153611;-58
2022/10/12 00:36:27;;;;;;;;;;;;;;;21.44;48.47;102182.28;7288890;19;153833;-58
2022/10/12 00:38:54;;;;;;;;;;;;;;;21.46;48.30;102174.41;7285237;19;151682;-58
2022/10/12 00:41:22;;;;;;;;;;;;;;;21.46;48.33;102168.81;7283259;19;153242;-58
2022/10/12 00:43:50;;;;;;;;;;;;;;;21.46;48.30;102171.63;7282123;19;153552;-58
2022/10/12 00:46:23;;;;;;;;;;;;;;;21.46;48.23;102166.00;7284808;19;152671;-58
2022/10/12 00:48:53;;;;;;;;;;;;;;;21.45;48.50;102167.09;7286532;19;152772;-58
2022/10/12 00:51:21;;;;;;;;;;;;;;;21.44;48.31;102165.41;7282860;19;154353;-57
2022/10/12 00:53:52;;;;;;;;;;;;;;;21.45;48.44;102164.28;7285917;19;152868;-58
2022/10/12 00:56:21;;;;;;;;;;;;;;;21.44;48.42;102164.59;7282132;19;155771;-57
2022/10/12 00:58:48;;;;;;;;;;;;;;;21.42;48.17;102164.88;7291957;19;154061;-58
2022/10/12 01:01:15;;;;;;;;;;;;;;;21.42;48.30;102167.69;7280824;19;153801;-58
2022/10/12 01:03:42;;;;;;;;;;;;;;;21.41;48.28;102160.38;7283228;19;153644;-58
2022/10/12 01:06:09;;;;;;;;;;;;;;;21.42;48.48;102158.41;7280317;19;152683;-58
2022/10/12 01:08:36;;;;;;;;;;;;;;;21.40;48.55;102155.88;7281182;19;157752;-58
2022/10/12 01:11:03;;;;;;;;;;;;;;;21.39;48.49;102162.66;7282157;19;153388;-58
2022/10/12 01:13:30;;;;;;;;;;;;;;;21.40;48.77;102157.84;7285923;19;152364;-58
2022/10/12 01:16:00;;;;;;;;;;;;;;;21.39;48.81;102156.19;7282776;19;153899;-58
2022/10/12 01:18:27;;;;;;;;;;;;;;;21.39;48.44;102159.00;7291419;19;153627;-58
2022/10/12 01:21:08;;;;;;;;;;;;;;;21.38;48.42;102154.50;7283314;19;154027;-57
2022/10/12 01:23:35;;;;;;;;;;;;;;;21.35;48.45;102144.63;7283502;19;152815;-58
2022/10/12 01:26:13;;;;;;;;;;;;;;;21.35;49.01;102149.44;7282319;19;151711;-58
2022/10/12 01:28:48;;;;;;;;;;;;;;;21.33;48.77;102146.91;7284902;19;154591;-58
2022/10/12 01:31:29;;;;;;;;;;;;;;;21.32;48.50;102142.41;7281393;19;154071;-63
2022/10/12 01:34:06;;;;;;;;;;;;;;;21.31;48.92;102140.72;7284842;19;152600;-61
2022/10/12 01:36:38;;;;;;;;;;;;;;;21.30;48.61;102134.25;7282476;19;153060;-57
2022/10/12 01:39:20;;;;;;;;;;;;;;;21.29;49.11;102135.41;7280960;19;154436;-58
2022/10/12 01:41:54;;;;;;;;;;;;;;;21.27;48.85;102137.63;7280267;19;152295;-57
2022/10/12 01:44:22;;;;;;;;;;;;;;;21.27;48.88;102140.44;7280263;19;154166;-57
2022/10/12 01:46:50;;;;;;;;;;;;;;;21.26;49.29;102144.38;7282372;19;152438;-57
2022/10/12 01:49:19;;;;;;;;;;;;;;;21.26;49.00;102135.94;7281887;19;152167;-57
2022/10/12 01:51:52;;;;;;;;;;;;;;;21.24;49.08;102134.56;7281379;19;153143;-58
2022/10/12 01:54:32;;;;;;;;;;;;;;;21.22;49.57;102129.22;7283674;19;152566;-57
2022/10/12 01:57:18;;;;;;;;;;;;;;;21.21;49.25;102133.13;7280091;19;155508;-57
2022/10/12 01:59:51;;;;;;;;;;;;;;;21.21;49.43;102129.50;7277044;19;152520;-57
2022/10/12 02:02:38;;;;;;;;;;;;;;;21.18;49.61;102132.88;7283201;19;152527;-57
2022/10/12 02:05:24;;;;;;;;;;;;;;;21.17;49.49;102137.66;7289006;19;152745;-57
2022/10/12 02:08:13;;;;;;;;;;;;;;;21.16;49.39;102132.34;7278018;19;153077;-57
2022/10/12 02:10:50;;;;;;;;;;;;;;;21.15;49.44;102123.06;7279164;19;152862;-58
2022/10/12 02:13:20;;;;;;;;;;;;;;;21.15;49.11;102119.41;7285128;19;154239;-58
2022/10/12 02:15:49;;;;;;;;;;;;;;;21.13;49.16;102124.44;7287739;19;152246;-58
2022/10/12 02:18:18;;;;;;;;;;;;;;;21.12;49.16;102123.56;7286666;19;152041;-57
2022/10/12 02:20:49;;;;;;;;;;;;;;;21.10;49.15;102120.22;7284870;19;154227;-57
2022/10/12 02:23:21;;;;;;;;;;;;;;;21.09;49.60;102123.31;7287314;19;152462;-57
2022/10/12 02:25:50;;;;;;;;;;;;;;;21.08;49.56;102113.19;7288164;19;153102;-57
2022/10/12 02:28:25;;;;;;;;;;;;;;;21.07;49.28;102112.38;7296207;19;154350;-57
2022/10/12 02:31:09;;;;;;;;;;;;;;;21.05;49.70;102106.19;7288206;19;153686;-58
2022/10/12 02:33:45;;;;;;;;;;;;;;;21.04;49.54;102110.09;7286751;19;153548;-58
2022/10/12 02:36:17;;;;;;;;;;;;;;;21.03;49.61;102108.41;7286184;19;152263;-58
2022/10/12 02:38:49;;;;;;;;;;;;;;;21.02;49.79;102101.13;7289048;19;153925;-58
2022/10/12 02:41:22;;;;;;;;;;;;;;;21.01;49.45;102098.59;7283587;19;152768;-58
2022/10/12 02:44:03;;;;;;;;;;;;;;;21.00;49.58;102097.75;7286853;19;152572;-58
2022/10/12 02:46:32;;;;;;;;;;;;;;;20.99;49.75;102100.84;7287401;19;152130;-58
2022/10/12 02:48:59;;;;;;;;;;;;;;;20.97;49.58;102092.72;7287004;19;154323;-58
2022/10/12 02:51:39;;;;;;;;;;;;;;;20.95;49.62;102089.31;7296337;19;152043;-58
2022/10/12 02:54:09;;;;;;;;;;;;;;;20.95;49.67;102094.09;7286672;19;152889;-57
2022/10/12 02:56:45;;;;;;;;;;;;;;;20.93;49.71;102097.22;7283974;19;152534;-58
2022/10/12 02:59:19;;;;;;;;;;;;;;;20.92;49.58;102086.25;7288090;19;153698;-58
2022/10/12 03:01:48;;;;;;;;;;;;;;;20.90;49.83;102086.53;7287147;19;154636;-58
2022/10/12 03:04:16;;;;;;;;;;;;;;;20.90;49.67;102088.47;7286808;19;152620;-58
2022/10/12 03:06:43;;;;;;;;;;;;;;;20.89;49.68;102084.84;7286654;19;153217;-58
2022/10/12 03:09:10;;;;;;;;;;;;;;;20.88;49.99;102085.13;7281916;19;153451;-58
2022/10/12 03:11:42;;;;;;;;;;;;;;;20.88;50.02;102087.94;7285509;19;152545;-58
2022/10/12 03:14:13;;;;;;;;;;;;;;;20.84;49.92;102080.09;7292921;19;153065;-57
2022/10/12 03:16:42;;;;;;;;;;;;;;;20.84;50.18;102077.28;7285754;19;151763;-57
2022/10/12 03:19:14;;;;;;;;;;;;;;;20.84;50.00;102077.28;7285679;19;153669;-57
2022/10/12 03:22:00;;;;;;;;;;;;;;;20.84;50.01;102065.19;7285103;19;154284;-57
2022/10/12 03:24:27;;;;;;;;;;;;;;;20.81;49.94;102072.22;7284254;19;151880;-57
2022/10/12 03:26:57;;;;;;;;;;;;;;;20.81;50.12;102065.75;7285370;19;153465;-57
2022/10/12 03:29:23;;;;;;;;;;;;;;;20.80;50.38;102064.91;7285690;19;153292;-57
2022/10/12 03:31:51;;;;;;;;;;;;;;;20.79;50.20;102066.03;7284710;19;152160;-57
2022/10/12 03:34:19;;;;;;;;;;;;;;;20.79;50.41;102059.59;7293114;19;153433;-57
2022/10/12 03:36:46;;;;;;;;;;;;;;;20.78;50.16;102060.69;7286887;19;152410;-57
2022/10/12 03:39:13;;;;;;;;;;;;;;;20.77;50.31;102061.81;7284717;19;152614;-57
2022/10/12 03:41:40;;;;;;;;;;;;;;;20.76;50.11;102054.50;7284148;19;153967;-58
2022/10/12 03:44:07;;;;;;;;;;;;;;;20.76;50.47;102057.31;7283106;19;152534;-58
2022/10/12 03:46:34;;;;;;;;;;;;;;;20.76;50.07;102046.09;7284478;19;153446;-57
2022/10/12 03:49:12;;;;;;;;;;;;;;;20.75;50.09;102041.63;7282122;19;153642;-58
2022/10/12 03:51:40;;;;;;;;;;;;;;;20.74;50.35;102037.97;7286353;19;152079;-58
2022/10/12 03:54:07;;;;;;;;;;;;;;;20.74;50.52;102037.97;7286076;19;153678;-58
2022/10/12 03:56:34;;;;;;;;;;;;;;;20.74;50.56;102034.31;7291705;19;153264;-57
2022/10/12 03:59:06;;;;;;;;;;;;;;;20.73;50.57;102036.28;7286632;19;153098;-57
2022/10/12 04:01:32;;;;;;;;;;;;;;;20.72;50.35;102031.78;7283876;19;154223;-58
2022/10/12 04:03:59;;;;;;;;;;;;;;;20.71;50.51;102038.53;7285530;19;152971;-57
2022/10/12 04:06:26;;;;;;;;;;;;;;;20.71;50.68;102032.09;7286440;19;153888;-57
2022/10/12 04:08:52;;;;;;;;;;;;;;;20.69;50.60;102029.53;7283819;19;153761;-57
2022/10/12 04:11:19;;;;;;;;;;;;;;;20.69;50.76;102023.94;7279932;19;152594;-58
2022/10/12 04:13:46;;;;;;;;;;;;;;;20.70;50.60;102027.59;7286545;19;153852;-57
2022/10/12 04:16:13;;;;;;;;;;;;;;;20.67;50.70;102022.53;7282671;19;153183;-58
2022/10/12 04:18:39;;;;;;;;;;;;;;;20.67;50.95;102020.56;7292260;19;151845;-57
2022/10/12 04:21:09;;;;;;;;;;;;;;;20.66;50.89;102023.66;7284348;19;153914;-58
2022/10/12 04:23:36;;;;;;;;;;;;;;;20.65;51.28;102005.97;7286919;19;152187;-58
2022/10/12 04:26:02;;;;;;;;;;;;;;;20.64;51.04;101997.81;7281728;19;153369;-58
2022/10/12 04:28:29;;;;;;;;;;;;;;;20.65;51.18;101999.50;7285561;19;154183;-58
2022/10/12 04:30:55;;;;;;;;;;;;;;;20.63;51.43;101991.34;7284719;19;153712;-58
2022/10/12 04:33:22;;;;;;;;;;;;;;;20.63;51.35;101990.50;7286132;19;153489;-58
2022/10/12 04:35:49;;;;;;;;;;;;;;;20.60;51.54;102000.34;7282466;19;153505;-57
2022/10/12 04:38:15;;;;;;;;;;;;;;;20.60;51.32;101989.13;7284305;19;151756;-58
2022/10/12 04:40:46;;;;;;;;;;;;;;;20.59;51.81;102000.63;7289984;19;152973;-58
2022/10/12 04:43:13;;;;;;;;;;;;;;;20.58;51.91;101990.53;7283003;19;152963;-58
2022/10/12 04:45:40;;;;;;;;;;;;;;;20.57;51.97;101998.13;7284955;19;152731;-57
2022/10/12 04:48:07;;;;;;;;;;;;;;;20.56;51.82;101993.63;7285329;19;153673;-58
2022/10/12 04:50:34;;;;;;;;;;;;;;;20.56;52.04;101989.97;7284356;19;152845;-58
2022/10/12 04:53:00;;;;;;;;;;;;;;;20.55;51.96;101993.91;7286111;19;152979;-58
2022/10/12 04:55:27;;;;;;;;;;;;;;;20.54;51.84;101990.25;7282904;19;154132;-57
2022/10/12 04:57:53;;;;;;;;;;;;;;;20.54;51.55;101995.84;7283603;19;154339;-58
2022/10/12 05:00:20;;;;;;;;;;;;;;;20.54;51.63;101997.81;7281695;19;152976;-58
2022/10/12 05:02:47;;;;;;;;;;;;;;;20.54;51.70;101992.22;7291511;19;153596;-58
2022/10/12 05:05:13;;;;;;;;;;;;;;;20.57;51.69;101992.50;7284773;19;153267;-58
2022/10/12 05:07:40;;;;;;;;;;;;;;;20.58;52.55;101996.97;7284852;19;153970;-58
2022/10/12 05:10:07;;;;;;;;;;;;;;;20.63;52.79;101996.97;7279900;19;155914;-58
2022/10/12 05:12:33;;;;;;;;;;;;;;;20.67;52.60;101991.66;7280569;19;153764;-57
2022/10/12 05:15:00;;;;;;;;;;;;;;;20.70;52.82;102000.34;7282695;19;153270;-57
2022/10/12 05:17:27;;;;;;;;;;;;;;;20.74;53.20;102001.47;7284109;19;152710;-57
2022/10/12 05:19:54;;;;;;;;;;;;;;;20.80;53.62;102003.09;7284009;19;152941;-57
2022/10/12 05:22:20;;;;;;;;;;;;;;;20.86;53.63;102004.78;7284149;19;153372;-57
2022/10/12 05:24:47;;;;;;;;;;;;;;;20.92;54.02;102001.97;7290386;19;151693;-57
2022/10/12 05:27:19;;;;;;;;;;;;;;;20.97;53.96;102001.94;7281147;19;154004;-57
2022/10/12 05:29:46;;;;;;;;;;;;;;;21.02;53.75;101996.31;7283483;19;152242;-57
2022/10/12 05:32:13;;;;;;;;;;;;;;;21.07;53.89;101988.72;7283601;19;153141;-57
2022/10/12 05:34:41;;;;;;;;;;;;;;;21.11;54.00;101978.59;7282101;19;153899;-57
2022/10/12 05:37:08;;;;;;;;;;;;;;;21.15;53.59;101974.09;7283742;19;152062;-58
2022/10/12 05:39:36;;;;;;;;;;;;;;;21.21;53.99;101980.53;7280585;19;153335;-57
2022/10/12 05:42:03;;;;;;;;;;;;;;;21.26;53.04;101977.69;7281125;19;155121;-57
2022/10/12 05:44:29;;;;;;;;;;;;;;;21.31;53.81;101977.66;7290100;19;152022;-57
2022/10/12 05:46:56;;;;;;;;;;;;;;;21.37;54.00;101970.06;7282994;19;153503;-57
2022/10/12 05:49:23;;;;;;;;;;;;;;;21.42;53.90;101970.88;7290076;19;153414;-57
2022/10/12 05:51:50;;;;;;;;;;;;;;;21.47;53.31;101970.84;7289591;19;153252;-57
2022/10/12 05:54:16;;;;;;;;;;;;;;;21.52;53.45;101964.34;7288961;19;153356;-57
2022/10/12 05:56:43;;;;;;;;;;;;;;;21.57;53.03;101967.13;7288270;19;152459;-57
2022/10/12 05:59:11;;;;;;;;;;;;;;;21.62;53.04;101975.53;7287974;19;153943;-57
2022/10/12 06:01:38;;;;;;;;;;;;;;;21.65;52.92;101975.78;7288428;19;153433;-57
2022/10/12 06:04:05;;;;;;;;;;;;;;;21.68;52.75;101975.19;7288597;19;152268;-57
2022/10/12 06:06:31;;;;;;;;;;;;;;;21.73;52.44;101965.88;7297289;19;152766;-57
2022/10/12 06:08:58;;;;;;;;;;;;;;;21.76;52.73;101975.72;7289529;19;153299;-57
2022/10/12 06:11:25;;;;;;;;;;;;;;;21.79;52.47;101975.16;7285848;19;153535;-57
2022/10/12 06:13:53;;;;;;;;;;;;;;;21.81;52.52;101962.44;7286260;19;154339;-57
2022/10/12 06:16:19;;;;;;;;;;;;;;;21.84;52.34;101969.47;7287955;19;151990;-57
2022/10/12 06:18:46;;;;;;;;;;;;;;;21.86;52.18;101965.22;7289542;19;153351;-57
2022/10/12 06:21:13;;;;;;;;;;;;;;;21.90;52.62;101965.47;7287197;19;154791;-57
2022/10/12 06:23:58;;;;;;;;;;;;;;;21.92;52.31;101964.06;7289949;19;152363;-58
2022/10/12 06:26:25;;;;;;;;;;;;;;;21.93;51.63;101965.78;7287641;19;153151;-58
2022/10/12 06:28:51;;;;;;;;;;;;;;;21.95;51.23;101959.84;7295637;19;153325;-58
2022/10/12 06:31:18;;;;;;;;;;;;;;;21.96;51.23;101961.53;7287555;19;154765;-58
2022/10/12 06:33:45;;;;;;;;;;;;;;;21.97;51.31;101966.03;7289095;19;153420;-58
2022/10/12 06:36:11;;;;;;;;;;;;;;;21.98;50.71;101962.94;7287746;19;152372;-58
2022/10/12 06:38:38;;;;;;;;;;;;;;;21.99;50.79;101960.94;7288121;19;152766;-57
2022/10/12 06:41:05;;;;;;;;;;;;;;;21.99;51.11;101961.78;7284552;19;154837;-57
2022/10/12 06:43:31;;;;;;;;;;;;;;;22.01;50.69;101961.50;7274403;19;153993;-57
2022/10/12 06:46:00;;;;;;;;;;;;;;;22.00;50.53;101962.63;7288035;19;153948;-57
2022/10/12 06:48:27;;;;;;;;;;;;;;;21.99;50.47;101955.31;7287467;19;154977;-57
2022/10/12 06:50:53;;;;;;;;;;;;;;;21.98;50.76;101954.50;7295202;19;152704;-57
2022/10/12 06:53:21;;;;;;;;;;;;;;;21.98;50.56;101960.13;7288425;19;154191;-57
2022/10/12 06:55:48;;;;;;;;;;;;;;;21.98;50.53;101951.69;7286846;19;152599;-58
2022/10/12 06:58:14;;;;;;;;;;;;;;;21.97;50.57;101963.22;7287157;19;152801;-58
2022/10/12 07:00:41;;;;;;;;;;;;;;;21.96;50.60;101956.75;7285205;19;154796;-58
2022/10/12 07:03:10;;;;;;;;;;;;;;;21.97;50.50;101951.97;7287994;19;152700;-57
2022/10/12 07:05:36;;;;;;;;;;;;;;;21.97;50.41;101954.78;7286467;19;154321;-57
2022/10/12 07:08:03;;;;;;;;;;;;;;;21.97;50.17;101952.81;7286383;19;153950;-57
2022/10/12 07:10:30;;;;;;;;;;;;;;;21.97;50.02;101955.63;7285627;19;152215;-57
2022/10/12 07:12:57;;;;;;;;;;;;;;;21.97;49.96;101949.16;7288606;19;153968;-57
2022/10/12 07:15:24;;;;;;;;;;;;;;;21.98;50.38;101954.50;7283804;19;151962;-57
2022/10/12 07:17:50;;;;;;;;;;;;;;;21.98;50.15;101951.69;7287339;19;152950;-57
2022/10/12 07:20:17;;;;;;;;;;;;;;;21.99;50.31;101947.72;7285782;19;153366;-57
2022/10/12 07:22:43;;;;;;;;;;;;;;;21.99;50.13;101950.53;7288204;19;151469;-57
2022/10/12 07:25:10;;;;;;;;;;;;;;;21.99;50.24;101946.88;7286494;19;153441;-57
2022/10/12 07:27:37;;;;;;;;;;;;;;;21.98;50.51;101948.88;7285639;19;154345;-57
2022/10/12 07:30:04;;;;;;;;;;;;;;;22.00;50.51;101957.84;7286643;19;152998;-57
2022/10/12 07:32:31;;;;;;;;;;;;;;;22.00;50.45;101954.19;7287790;19;153102;-57
2022/10/12 07:34:57;;;;;;;;;;;;;;;22.00;50.83;101957.00;7292926;19;153408;-57
2022/10/12 07:37:24;;;;;;;;;;;;;;;22.00;50.34;101948.56;7286370;19;153469;-57
2022/10/12 07:39:55;;;;;;;;;;;;;;;22.05;50.86;101954.97;7282741;19;154351;-57
2022/10/12 07:42:23;;;;;;;;;;;;;;;22.03;50.46;101950.78;7284793;19;151963;-57
2022/10/12 07:44:49;;;;;;;;;;;;;;;22.05;50.55;101954.13;7285869;19;153866;-58
2022/10/12 07:47:18;;;;;;;;;;;;;;;22.03;50.35;101954.44;7284655;19;154070;-57
2022/10/12 07:49:45;;;;;;;;;;;;;;;22.02;50.63;101944.31;7286649;19;152295;-57
2022/10/12 07:52:11;;;;;;;;;;;;;;;22.01;50.31;101948.28;7286512;19;153561;-58
2022/10/12 07:54:39;;;;;;;;;;;;;;;22.00;50.35;101952.22;7292739;19;153186;-58
2022/10/12 07:57:06;;;;;;;;;;;;;;;22.00;50.59;101945.75;7285226;19;153002;-58
2022/10/12 07:59:33;;;;;;;;;;;;;;;21.99;50.53;101935.59;7282833;19;153940;-58
2022/10/12 08:02:00;;;;;;;;;;;;;;;21.96;50.61;101937.06;7286732;19;152573;-58
2022/10/12 08:04:26;;;;;;;;;;;;;;;21.96;50.59;101939.03;7286820;19;152818;-58
2022/10/12 08:06:54;;;;;;;;;;;;;;;21.95;50.59;101935.38;7285029;19;153984;-58
2022/10/12 08:09:20;;;;;;;;;;;;;;;21.95;50.35;101937.34;7285955;19;152505;-57
2022/10/12 08:11:47;;;;;;;;;;;;;;;21.93;50.64;101943.28;7284590;19;153737;-57
2022/10/12 08:14:15;;;;;;;;;;;;;;;21.92;50.65;101930.31;7279346;19;153357;-57
2022/10/12 08:16:42;;;;;;;;;;;;;;;21.89;50.85;101925.28;7291973;19;153604;-57
2022/10/12 08:19:11;;;;;;;;;;;;;;;21.89;50.54;101930.91;7283881;19;154486;-57
2022/10/12 08:21:38;;;;;;;;;;;;;;;21.87;50.62;101923.88;7284482;19;154359;-57
2022/10/12 08:24:04;;;;;;;;;;;;;;;21.86;50.69;101925.84;7285785;19;153237;-57
2022/10/12 08:26:32;;;;;;;;;;;;;;;21.87;51.04;101929.50;7283612;19;153722;-57
2022/10/12 08:29:11;;;;;;;;;;;;;;;21.88;51.19;101923.59;7286893;19;152944;-57
2022/10/12 08:31:38;;;;;;;;;;;;;;;21.88;50.75;101908.66;7285624;19;155551;-57
2022/10/12 08:34:05;;;;;;;;;;;;;;;21.86;50.87;101910.94;7284425;19;153882;-57
2022/10/12 08:36:31;;;;;;;;;;;;;;;21.87;50.57;101924.72;7284182;19;153083;-57
2022/10/12 08:38:58;;;;;;;;;;;;;;;21.89;50.62;101918.81;7290491;19;153471;-58
2022/10/12 08:41:31;;;;;;;;;;;;;;;21.91;50.77;101920.16;7283967;19;152267;-57
2022/10/12 08:44:10;;;;;;;;;;;;;;;21.95;50.89;101912.00;7281557;19;152664;-57
2022/10/12 08:46:37;;;;;;;;;;;;;;;21.93;49.02;101906.69;7282645;19;152784;-57
2022/10/12 08:49:18;;;;;;;;;;;;;;;21.94;48.87;101907.53;7283940;19;152886;-57
2022/10/12 08:51:51;;;;;;;;;;;;;;;21.92;48.79;101896.53;7284633;19;153207;-57
2022/10/12 08:54:27;;;;;;;;;;;;;;;21.93;49.25;101908.66;7281949;19;153677;-57
2022/10/12 08:56:55;;;;;;;;;;;;;;;22.00;49.40;101912.81;7283598;19;154126;-57
2022/10/12 08:59:25;;;;;;;;;;;;;;;22.04;49.54;101905.44;7281912;19;152948;-57
2022/10/12 09:01:51;;;;;;;;;;;;;;;22.02;47.00;101902.13;7291502;19;154532;-57
2022/10/12 09:04:37;;;;;;;;;;;;;;;21.90;44.90;101897.94;7283956;19;152215;-57
2022/10/12 09:07:03;;;;;;;;;;;;;;;21.97;45.86;101907.78;7282060;19;152343;-57
2022/10/12 09:09:33;;;;;;;;;;;;;;;21.94;44.83;101902.72;7284418;19;152892;-57
2022/10/12 09:12:18;;;;;;;;;;;;;;;21.96;45.48;101906.09;7282295;19;153711;-57
2022/10/12 09:14:46;;;;;;;;;;;;;;;21.99;45.64;101904.66;7277966;19;154987;-57
2022/10/12 09:17:39;;;;;;;;;;;;;;;22.00;45.42;101900.72;7279229;19;152078;-57
2022/10/12 09:20:14;;;;;;;;;;;;;;;22.01;45.42;101899.59;7278919;19;153664;-58
2022/10/12 09:22:44;;;;;;;;;;;;;;;22.02;45.88;101890.84;7281939;19;153358;-57
2022/10/12 09:25:12;;;;;;;;;;;;;;;22.02;45.75;101893.66;7288631;19;154674;-57
2022/10/12 09:27:39;;;;;;;;;;;;;;;22.03;45.61;101891.69;7279421;19;152947;-58
2022/10/12 09:30:12;;;;;;;;;;;;;;;22.03;45.71;101884.06;7283877;19;152460;-57
2022/10/12 09:32:59;;;;;;;;;;;;;;;22.03;45.64;101889.69;7283531;19;152168;-57
2022/10/12 09:35:26;;;;;;;;;;;;;;;22.03;45.86;101898.13;7277818;19;154384;-57
2022/10/12 09:37:53;;;;;;;;;;;;;;;22.02;45.69;101896.47;7284650;19;151778;-57
2022/10/12 09:40:24;;;;;;;;;;;;;;;22.00;45.61;101904.38;7281297;19;153112;-57
2022/10/12 09:42:52;;;;;;;;;;;;;;;22.04;45.63;101902.63;7279631;19;153818;-58
2022/10/12 09:45:20;;;;;;;;;;;;;;;22.02;45.53;101904.94;7288963;19;152190;-57
2022/10/12 09:48:05;;;;;;;;;;;;;;;22.04;45.99;101901.78;7281196;19;153966;-58
2022/10/12 09:50:58;;;;;;;;;;;;;;;22.06;46.02;101906.00;7278736;19;153371;-58
2022/10/12 09:53:27;;;;;;;;;;;;;;;22.07;45.93;101901.22;7283003;19;153737;-57
2022/10/12 09:55:56;;;;;;;;;;;;;;;22.03;45.67;101900.13;7278446;19;153340;-60
2022/10/12 09:58:24;;;;;;;;;;;;;;;22.02;46.18;101904.09;7283594;19;152919;-61
2022/10/12 10:01:09;;;;;;;;;;;;;;;22.00;46.00;101907.19;7279667;19;154136;-61
2022/10/12 10:03:36;;;;;;;;;;;;;;;22.01;46.53;101894.78;7282185;19;153424;-61
2022/10/12 10:06:03;;;;;;;;;;;;;;;22.03;46.04;101902.94;7281743;19;152156;-62
2022/10/12 10:08:38;;;;;;;;;;;;;;;22.04;46.11;101904.59;7290415;19;153226;-62
2022/10/12 10:11:05;;;;;;;;;;;;;;;22.03;46.08;101906.56;7279288;19;152077;-62
2022/10/12 10:13:32;;;;;;;;;;;;;;;22.05;45.76;101909.09;7283572;19;153491;-62
2022/10/12 10:16:03;;;;;;;;;;;;;;;22.05;45.99;101912.75;7275688;19;152459;-62
2022/10/12 10:18:33;;;;;;;;;;;;;;;22.05;45.60;101915.59;7279305;19;153067;-62
2022/10/12 10:21:04;;;;;;;;;;;;;;;22.04;45.65;101910.22;7279319;19;152766;-61
2022/10/12 10:23:36;;;;;;;;;;;;;;;22.04;45.44;101910.22;7280973;19;152756;-62
2022/10/12 10:26:02;;;;;;;;;;;;;;;22.03;45.29;101909.41;7279772;19;152341;-61
2022/10/12 10:28:30;;;;;;;;;;;;;;;22.02;45.66;101906.91;7282789;19;154398;-62
2022/10/12 10:30:58;;;;;;;;;;;;;;;22.01;45.69;101911.69;7288304;19;153473;-62
2022/10/12 10:33:25;;;;;;;;;;;;;;;22.03;45.84;101914.22;7282877;19;152739;-62
2022/10/12 10:36:21;;;;;;;;;;;;;;;22.02;45.22;101909.72;7286008;19;153349;-62
2022/10/12 10:39:19;;;;;;;;;;;;;;;22.00;45.56;101901.56;7276552;19;152053;-62
2022/10/12 10:42:09;;;;;;;;;;;;;;;21.99;46.01;101907.47;7268881;19;153448;-62
2022/10/12 10:44:36;;;;;;;;;;;;;;;21.97;45.92;101913.41;7283979;19;154848;-62
2022/10/12 10:47:08;;;;;;;;;;;;;;;21.94;45.73;101902.72;7284200;19;152788;-62
2022/10/12 10:49:34;;;;;;;;;;;;;;;21.95;45.90;101889.50;7279547;19;152959;-62
2022/10/12 10:52:01;;;;;;;;;;;;;;;21.94;45.77;101890.66;7281413;19;152624;-62
2022/10/12 10:54:30;;;;;;;;;;;;;;;21.94;46.04;101887.84;7286919;19;153242;-62
2022/10/12 10:57:02;;;;;;;;;;;;;;;21.92;45.67;101882.47;7278994;19;153812;-62
2022/10/12 10:59:34;;;;;;;;;;;;;;;21.92;46.01;101868.41;7279484;19;154254;-61
2022/10/12 11:02:07;;;;;;;;;;;;;;;21.91;46.37;101868.69;7280879;19;153292;-62
2022/10/12 11:04:38;;;;;;;;;;;;;;;21.89;46.25;101857.75;7284337;19;153119;-61
2022/10/12 11:07:25;;;;;;;;;;;;;;;21.90;46.22;101836.03;7285758;19;152328;-62
2022/10/12 11:09:57;;;;;;;;;;;;;;;21.89;46.52;101837.22;7285116;19;153511;-62
2022/10/12 11:12:27;;;;;;;;;;;;;;;21.89;46.14;101840.03;7283466;19;152251;-62
2022/10/12 11:15:11;;;;;;;;;;;;;;;21.88;46.44;101842.00;7283254;19;152497;-62
2022/10/12 11:17:42;;;;;;;;;;;;;;;21.89;46.56;101835.22;7287245;19;157363;-62
2022/10/12 11:20:28;;;;;;;;;;;;;;;21.91;46.16;101815.22;7283968;19;152257;-62
2022/10/12 11:23:02;;;;;;;;;;;;;;;21.90;46.39;101816.34;7285925;19;152160;-62
2022/10/12 11:25:37;;;;;;;;;;;;;;;21.89;46.44;101798.66;7281560;19;152727;-62
2022/10/12 11:28:05;;;;;;;;;;;;;;;21.89;46.23;101804.28;7283401;19;152040;-62
2022/10/12 11:30:42;;;;;;;;;;;;;;;21.87;46.55;101800.91;7281788;19;153206;-62
2022/10/12 11:33:14;;;;;;;;;;;;;;;21.85;46.53;101808.78;7278795;19;153885;-61
2022/10/12 11:35:43;;;;;;;;;;;;;;;21.86;46.40;101804.84;7281703;19;152585;-62
2022/10/12 11:38:15;;;;;;;;;;;;;;;21.86;46.45;101804.84;7284736;19;152930;-62
2022/10/12 11:41:11;;;;;;;;;;;;;;;21.86;46.49;101801.19;7288988;19;153352;-62
2022/10/12 11:44:02;;;;;;;;;;;;;;;21.85;46.61;101805.97;7280933;19;156370;-62
2022/10/12 11:46:33;;;;;;;;;;;;;;;21.85;46.50;101802.34;7282576;19;155165;-62
2022/10/12 11:49:22;;;;;;;;;;;;;;;21.83;46.57;101799.84;7285952;19;152460;-62
2022/10/12 11:51:50;;;;;;;;;;;;;;;21.80;46.60;101814.50;7286944;19;152271;-62
2022/10/12 11:54:37;;;;;;;;;;;;;;;21.81;46.21;101816.16;7284859;19;154103;-61
2022/10/12 11:57:09;;;;;;;;;;;;;;;21.81;46.33;101818.97;7284263;19;152253;-62
2022/10/12 11:59:45;;;;;;;;;;;;;;;21.80;46.22;101814.50;7285760;19;152564;-61
2022/10/12 12:02:22;;;;;;;;;;;;;;;21.80;46.62;101800.44;7291091;19;154000;-61
2022/10/12 12:04:49;;;;;;;;;;;;;;;21.81;46.57;101804.91;7284156;19;152789;-61
2022/10/12 12:07:35;;;;;;;;;;;;;;;21.83;46.40;101807.44;7285759;19;154429;-61
2022/10/12 12:10:21;;;;;;;;;;;;;;;21.83;46.46;101816.72;7285721;19;152274;-62
2022/10/12 12:13:10;;;;;;;;;;;;;;;21.84;46.45;101815.59;7283241;19;153470;-61
2022/10/12 12:15:37;;;;;;;;;;;;;;;21.84;46.47;101809.97;7284212;19;154674;-61
2022/10/12 12:18:14;;;;;;;;;;;;;;;21.86;46.29;101792.75;7280359;19;152414;-59
2022/10/12 12:20:41;;;;;;;;;;;;;;;21.88;46.21;101777.28;7270059;19;155445;-61
2022/10/12 12:23:17;;;;;;;;;;;;;;;21.90;46.41;101788.22;7283849;19;153043;-61
2022/10/12 12:25:44;;;;;;;;;;;;;;;21.93;46.52;101784.84;7288106;19;152705;-61
2022/10/12 12:28:17;;;;;;;;;;;;;;;21.95;46.45;101776.94;7283496;19;153221;-61
2022/10/12 12:30:55;;;;;;;;;;;;;;;21.96;46.20;101767.38;7283572;19;151872;-61
2022/10/12 12:33:22;;;;;;;;;;;;;;;21.98;46.39;101759.47;7285533;19;152866;-61
2022/10/12 12:35:54;;;;;;;;;;;;;;;22.11;47.25;101755.94;7282887;19;152769;-60
2022/10/12 12:38:23;;;;;;;;;;;;;;;22.27;47.67;101742.50;7286366;19;152188;-61
2022/10/12 12:40:54;;;;;;;;;;;;;;;22.31;47.19;101746.38;7282631;19;153498;-59
2022/10/12 12:43:27;;;;;;;;;;;;;;;22.35;47.38;101745.50;7279551;19;152886;-60
2022/10/12 12:45:58;;;;;;;;;;;;;;;22.38;47.21;101744.06;7283376;19;152510;-60